createdAt,value
2023-07-25T00:00:48.883Z,92
2023-07-25T00:20:47.401Z,92
2023-07-25T00:40:47.719Z,93
2023-07-25T01:00:48.961Z,93
2023-07-25T01:20:51.046Z,93
2023-07-25T01:40:51.295Z,93
2023-07-25T02:00:50.390Z,94
2023-07-25T02:20:49.451Z,94
2023-07-25T02:40:46.484Z,94
2023-07-25T03:00:48.214Z,93
2023-07-25T03:20:46.513Z,94
2023-07-25T03:40:47.026Z,93
2023-07-25T04:00:48.801Z,93
2023-07-25T04:20:47.642Z,92
2023-07-25T04:41:08.395Z,92
2023-07-25T05:01:15.207Z,92
2023-07-25T05:20:48.445Z,91
2023-07-25T05:41:07.435Z,91
2023-07-25T06:01:09.206Z,90
2023-07-25T06:21:06.976Z,89
2023-07-25T06:41:06.816Z,89
2023-07-25T07:01:14.767Z,87
2023-07-25T07:21:08.504Z,88
2023-07-25T07:41:12.801Z,90
2023-07-25T08:01:09.842Z,92
2023-07-25T08:21:14.094Z,93
2023-07-25T08:41:12.049Z,90
2023-07-25T09:01:07.658Z,90
2023-07-25T09:21:08.611Z,84
2023-07-25T09:41:15.705Z,91
2023-07-25T10:01:12.503Z,92
2023-07-25T10:21:08.405Z,92
2023-07-25T10:41:15.932Z,91
2023-07-25T11:01:11.861Z,87
2023-07-25T11:21:13.616Z,86
2023-07-25T11:41:09.757Z,81
2023-07-25T12:01:08.885Z,81
2023-07-25T12:21:23.713Z,81
2023-07-25T12:41:07.886Z,88
2023-07-25T13:01:12.672Z,90
2023-07-25T13:21:23.343Z,91
2023-07-25T13:41:08.008Z,91
2023-07-25T14:01:08.981Z,90
2023-07-25T14:21:25.090Z,87
2023-07-25T14:41:15.040Z,81
2023-07-25T15:01:09.167Z,72
2023-07-25T15:21:11.389Z,79
2023-07-25T15:41:10.961Z,74
2023-07-25T16:01:11.487Z,72
2023-07-25T16:21:07.115Z,73
2023-07-25T16:41:10.115Z,70
2023-07-25T17:01:19.565Z,69
2023-07-25T17:21:10.320Z,73
2023-07-25T17:41:09.697Z,74
2023-07-25T18:01:08.686Z,77
2023-07-25T18:21:13.265Z,76
2023-07-25T18:41:13.248Z,86
2023-07-25T19:00:53.535Z,86
2023-07-25T19:20:49.618Z,90
2023-07-25T19:40:49.826Z,91
2023-07-25T20:00:50.779Z,92
2023-07-25T20:20:52.344Z,92
2023-07-25T20:40:51.786Z,92
2023-07-25T21:00:49.967Z,92
2023-07-25T21:20:49.698Z,91
2023-07-25T21:40:51.146Z,92
2023-07-25T22:01:05.769Z,91
2023-07-25T22:21:10.541Z,91
2023-07-25T22:40:47.940Z,92
2023-07-25T23:00:46.810Z,92
2023-07-25T23:20:49.357Z,92
2023-07-25T23:40:47.534Z,92
